createdAt,value
2018-04-12T07:08:50.373Z,63.90
2018-04-12T07:11:17.160Z,63.43
2018-04-12T07:13:43.153Z,69.37
2018-04-12T07:16:09.165Z,65.23
2018-04-12T07:18:35.163Z,67.00
2018-04-12T07:21:02.348Z,68.32
2018-04-12T07:23:28.328Z,63.90
2018-04-12T07:25:55.085Z,67.97
2018-04-12T07:28:21.059Z,66.70
2018-04-12T07:30:47.043Z,66.60
2018-04-12T07:33:13.021Z,63.87
2018-04-12T07:35:39.757Z,60.73
2018-04-12T07:38:06.506Z,62.97
2018-04-12T07:40:32.607Z,68.23
2018-04-12T07:42:59.343Z,66.57
2018-04-12T07:45:26.079Z,61.03
2018-04-12T07:47:52.825Z,62.30
2018-04-12T07:50:19.623Z,68.93
2018-04-12T07:52:45.602Z,64.50
2018-04-12T07:55:11.616Z,63.70
2018-04-12T07:57:37.627Z,59.07
2018-04-12T08:00:04.448Z,65.50
2018-04-12T08:02:31.203Z,68.97
2018-04-12T08:04:57.203Z,66.63
2018-04-12T08:07:23.199Z,68.63
2018-04-12T08:09:49.212Z,67.93
2018-04-12T08:12:15.203Z,71.33
2018-04-12T08:14:41.205Z,72.93
2018-04-12T08:17:07.204Z,76.53
2018-04-12T08:19:34.995Z,75.70
2018-04-12T08:22:00.979Z,76.13
2018-04-12T08:24:27.968Z,70.57
2018-04-12T08:26:54.241Z,71.77
2018-04-12T08:29:21.050Z,73.33
2018-04-12T08:31:47.062Z,80.80
2018-04-12T08:34:13.061Z,79.97
2018-04-12T08:36:39.093Z,66.40
2018-04-12T08:39:05.882Z,65.47
2018-04-12T08:41:32.618Z,68.23
2018-04-12T08:43:59.361Z,69.90
2018-04-12T08:46:26.318Z,72.03
2018-04-12T08:48:53.087Z,69.73
2018-04-12T08:51:19.085Z,71.17
2018-04-12T08:53:45.113Z,65.93
2018-04-12T08:56:11.097Z,65.27
2018-04-12T08:58:37.837Z,68.87
2018-04-12T09:01:04.625Z,65.43
2018-04-12T09:03:30.609Z,71.13
2018-04-12T09:05:56.588Z,66.93
2018-04-12T09:08:22.601Z,66.57
2018-04-12T09:10:48.707Z,66.80
2018-04-12T09:13:14.719Z,57.17
2018-04-12T09:15:40.718Z,63.10
2018-04-12T09:18:25.269Z,58.13
2018-04-12T09:20:51.352Z,63.43
2018-04-12T09:23:17.352Z,61.97
2018-04-12T09:25:43.335Z,58.33
2018-04-12T09:28:10.106Z,61.33
2018-04-12T09:30:36.149Z,52.17
2018-04-12T09:33:02.168Z,57.50
2018-04-12T09:35:28.171Z,57.67
2018-04-12T09:37:55.376Z,56.40
2018-04-12T09:40:21.481Z,55.93
2018-04-12T09:42:48.296Z,57.40
2018-04-12T09:45:14.286Z,58.40
2018-04-12T09:47:40.274Z,57.27
2018-04-12T09:50:07.064Z,59.23
2018-04-12T09:52:33.019Z,57.57
2018-04-12T09:54:59.762Z,60.57
2018-04-12T09:57:25.768Z,53.50
2018-04-12T09:59:52.556Z,55.70
2018-04-12T10:02:24.693Z,59.37
2018-04-12T10:05:05.558Z,56.17
2018-04-12T10:07:37.593Z,61.77
2018-04-12T10:10:04.427Z,65.77
2018-04-12T10:12:30.399Z,60.10
2018-04-12T10:14:56.399Z,62.23
2018-04-12T10:17:22.456Z,59.87
2018-04-12T10:19:48.478Z,61.50
2018-04-12T10:22:14.457Z,55.30
2018-04-12T10:24:40.453Z,58.87
2018-04-12T10:27:07.200Z,56.57
2018-04-12T10:29:33.228Z,62.40
2018-04-12T10:31:59.229Z,52.47
2018-04-12T10:34:25.969Z,62.00
2018-04-12T10:36:51.975Z,53.93
2018-04-12T10:39:18.770Z,55.30
2018-04-12T10:41:44.843Z,55.10
2018-04-12T10:44:11.599Z,55.40
2018-04-12T10:46:37.573Z,47.60
2018-04-12T10:49:03.551Z,58.30
2018-04-12T10:51:29.618Z,50.60
2018-04-12T10:53:56.345Z,53.70
2018-04-12T10:56:24.892Z,50.23
2018-04-12T10:58:50.860Z,57.70
2018-04-12T11:01:17.659Z,53.00
2018-04-12T11:03:43.645Z,51.97
2018-04-12T11:06:09.619Z,51.93
2018-04-12T11:08:35.638Z,56.37
2018-04-12T11:11:01.629Z,51.20
2018-04-12T11:13:27.604Z,50.47
2018-04-12T11:15:55.232Z,40.33
2018-04-12T11:18:21.279Z,44.30
2018-04-12T11:20:47.335Z,47.97
2018-04-12T11:23:13.322Z,44.50
2018-04-12T11:25:40.038Z,42.43
2018-04-12T11:28:06.767Z,44.67
2018-04-12T11:30:32.845Z,39.67
2018-04-12T11:32:58.814Z,42.07
2018-04-12T11:35:24.795Z,42.70
2018-04-12T11:37:50.799Z,38.50
2018-04-12T11:40:16.805Z,37.73
2018-04-12T11:42:42.823Z,36.93
2018-04-12T11:45:08.859Z,32.67
2018-04-12T11:47:34.883Z,35.37
2018-04-12T11:50:00.928Z,36.07
2018-04-12T11:52:26.877Z,35.67
2018-04-12T11:54:53.744Z,33.23
2018-04-12T11:57:19.734Z,32.63
2018-04-12T11:59:46.496Z,38.80
2018-04-12T12:02:12.546Z,41.17
2018-04-12T12:04:38.507Z,55.33
2018-04-12T12:07:05.258Z,61.23
2018-04-12T12:09:32.022Z,65.60
2018-04-12T12:11:58.029Z,56.47
2018-04-12T12:14:24.035Z,46.27
2018-04-12T12:16:50.038Z,42.67
2018-04-12T12:19:16.846Z,42.33
2018-04-12T12:21:42.840Z,42.10
2018-04-12T12:24:08.800Z,37.70
2018-04-12T12:26:34.806Z,37.00
2018-04-12T12:29:00.819Z,36.60
2018-04-12T12:31:26.804Z,35.37
2018-04-12T12:33:52.813Z,35.97
2018-04-12T12:36:19.542Z,37.30
2018-04-12T12:38:46.257Z,38.43
2018-04-12T12:41:12.243Z,36.10
2018-04-12T12:43:38.217Z,36.93
2018-04-12T12:46:04.968Z,41.97
2018-04-12T12:48:30.990Z,37.10
2018-04-12T12:50:57.040Z,36.50
2018-04-12T12:53:23.042Z,37.57
2018-04-12T12:55:49.025Z,38.70
2018-04-12T12:58:15.741Z,36.20
2018-04-12T13:00:41.890Z,36.60
2018-04-12T13:03:08.671Z,40.20
2018-04-12T13:05:34.744Z,40.53
2018-04-12T13:08:01.539Z,38.50
2018-04-12T13:10:27.587Z,42.57
2018-04-12T13:12:53.632Z,40.37
2018-04-12T13:15:20.392Z,42.53
2018-04-12T13:17:46.361Z,42.40
2018-04-12T13:20:12.476Z,40.83
2018-04-12T13:22:38.502Z,42.00
2018-04-12T13:25:05.267Z,44.13
2018-04-12T13:27:32.026Z,49.80
2018-04-12T13:29:58.507Z,43.23
2018-04-12T13:32:24.501Z,48.60
2018-04-12T13:34:50.495Z,42.97
2018-04-12T13:37:16.501Z,48.53
2018-04-12T13:39:42.543Z,45.03
2018-04-12T13:42:08.561Z,46.00
2018-04-12T13:44:34.527Z,42.57
2018-04-12T13:47:00.495Z,46.27
2018-04-12T13:49:26.520Z,46.73
2018-04-12T13:51:52.508Z,46.17
2018-04-12T13:54:19.468Z,46.20
2018-04-12T13:56:45.468Z,49.47
2018-04-12T13:59:12.694Z,47.00
2018-04-12T14:01:38.698Z,45.70
2018-04-12T14:04:04.709Z,51.00
2018-04-12T14:06:30.735Z,46.60
2018-04-12T14:08:56.763Z,51.97
2018-04-12T14:11:22.863Z,49.77
2018-04-12T14:16:21.118Z,50.17
2018-04-12T14:18:47.439Z,54.53
2018-04-12T14:21:13.494Z,47.73
2018-04-12T14:23:41.912Z,49.93
2018-04-12T14:26:09.779Z,47.63
2018-04-12T14:28:36.516Z,49.43
2018-04-12T14:31:03.325Z,44.60
2018-04-12T14:33:30.148Z,44.00
2018-04-12T14:35:56.120Z,43.70
2018-04-12T14:38:22.157Z,53.43
2018-04-12T14:40:48.327Z,54.37
2018-04-12T14:43:14.336Z,51.03
2018-04-12T14:45:40.366Z,47.73
2018-04-12T14:48:06.348Z,51.60
2018-04-12T14:50:32.374Z,52.17
2018-04-12T14:52:58.351Z,54.70
2018-04-12T14:55:25.108Z,52.37
2018-04-12T14:57:51.111Z,48.40
2018-04-12T15:00:18.535Z,48.10
2018-04-12T15:05:19.373Z,46.93
2018-04-12T15:07:52.029Z,48.30
2018-04-12T15:10:18.870Z,45.27
2018-04-12T15:12:44.879Z,48.17
2018-04-12T15:15:10.881Z,45.57
2018-04-12T15:17:39.333Z,48.40
2018-04-12T15:20:06.976Z,48.03
2018-04-12T15:22:33.728Z,47.87
2018-04-12T15:25:01.436Z,45.47
2018-04-12T15:27:27.558Z,51.43
2018-04-12T15:29:53.675Z,45.80
2018-04-12T15:32:20.695Z,45.73
2018-04-12T15:34:46.720Z,46.20
2018-04-12T15:37:14.307Z,43.43
2018-04-12T15:39:41.270Z,46.67
2018-04-12T15:42:07.324Z,44.07
2018-04-12T15:44:34.388Z,44.60
2018-04-12T15:47:00.585Z,47.57
2018-04-12T15:49:26.655Z,48.47
2018-04-12T15:51:52.661Z,44.73
2018-04-12T15:54:18.722Z,43.63
2018-04-12T15:56:46.164Z,41.83
2018-04-12T15:59:12.157Z,48.53
2018-04-12T16:01:38.159Z,45.27
2018-04-12T16:04:04.220Z,46.27
2018-04-12T16:06:31.915Z,45.80
2018-04-12T16:08:59.072Z,45.70
2018-04-12T16:11:26.930Z,44.77
2018-04-12T16:13:53.506Z,44.33
2018-04-12T16:16:20.200Z,45.57
2018-04-12T16:18:46.342Z,42.37
2018-04-12T16:21:16.787Z,45.50
2018-04-12T16:23:42.895Z,43.30
2018-04-12T16:26:09.717Z,48.83
2018-04-12T16:28:35.707Z,42.08
2018-04-12T16:31:03.988Z,40.27
2018-04-12T16:33:31.109Z,43.07
2018-04-12T16:35:57.157Z,42.17
2018-04-12T16:38:23.950Z,45.33
2018-04-12T16:40:50.993Z,46.13
2018-04-12T16:43:16.999Z,43.27
2018-04-12T16:45:42.994Z,38.50
2018-04-12T16:48:09.018Z,44.70
2018-04-12T16:50:35.121Z,47.93
2018-04-12T16:53:01.094Z,43.60
2018-04-12T16:55:27.085Z,40.30
2018-04-12T16:57:53.851Z,45.20
2018-04-12T17:00:19.876Z,40.13
2018-04-12T17:02:46.786Z,46.33
2018-04-12T17:05:12.757Z,39.90
2018-04-12T17:07:39.491Z,41.07
2018-04-12T17:10:06.321Z,43.33
2018-04-12T17:12:35.191Z,45.77
2018-04-12T17:15:01.206Z,43.83
2018-04-12T17:17:27.293Z,48.03
2018-04-12T17:19:54.136Z,43.60
2018-04-12T17:22:20.229Z,45.90
2018-04-12T17:24:47.006Z,42.00
2018-04-12T17:27:13.042Z,45.63
2018-04-12T17:29:41.226Z,40.80
2018-04-12T17:32:07.211Z,44.40
2018-04-12T18:55:51.345Z,42.57
2018-04-12T18:58:17.353Z,40.17
2018-04-12T19:00:44.795Z,43.70
2018-04-12T19:03:11.667Z,45.07
2018-04-12T19:05:38.656Z,42.20
2018-04-12T19:43:16.908Z,51.80
2018-04-12T19:45:43.733Z,40.07
2018-04-12T19:48:09.796Z,41.07
2018-04-12T19:50:36.011Z,42.67
2018-04-12T19:53:02.392Z,45.03
2018-04-12T20:39:00.298Z,44.37
2018-04-12T20:41:26.344Z,41.53
2018-04-12T20:43:52.352Z,44.10
2018-04-12T20:46:18.461Z,43.50
2018-04-12T20:48:44.805Z,48.83
2018-04-12T20:51:11.016Z,49.57
2018-04-12T20:53:37.085Z,45.50
2018-04-12T20:56:03.392Z,43.53
2018-04-12T20:58:29.443Z,49.17
2018-04-12T21:00:56.271Z,48.70
2018-04-12T21:03:22.289Z,44.67
2018-04-12T21:05:48.315Z,46.13
2018-04-12T21:08:15.078Z,51.97
2018-04-12T21:10:41.877Z,46.20
2018-04-12T21:13:07.901Z,48.27
2018-04-12T21:15:33.978Z,43.77
2018-04-12T21:18:00.046Z,46.07
2018-04-12T21:20:26.183Z,45.33
2018-04-12T21:22:52.963Z,50.63
2018-04-12T21:25:18.967Z,51.90
2018-04-12T21:27:44.991Z,50.33
2018-04-12T21:30:11.067Z,52.90
2018-04-12T21:32:37.158Z,49.10
2018-04-12T21:35:03.213Z,45.77
2018-04-12T21:37:29.991Z,46.00
2018-04-12T21:39:56.275Z,46.80
2018-04-12T21:42:23.998Z,45.03
2018-04-12T21:44:50.051Z,47.47
2018-04-12T21:47:16.246Z,47.30
2018-04-12T21:49:42.384Z,49.17
2018-04-12T21:52:09.212Z,50.00
2018-04-12T21:54:35.261Z,51.00
2018-04-12T21:57:02.122Z,48.70
2018-04-12T21:59:28.261Z,47.60
2018-04-12T22:01:54.331Z,50.53
2018-04-12T22:04:20.510Z,52.70
2018-04-12T22:06:46.693Z,50.37
2018-04-12T22:09:13.689Z,50.50
2018-04-12T22:11:39.907Z,50.30
2018-04-12T22:14:06.107Z,49.23
2018-04-12T22:16:32.273Z,50.33
2018-04-12T22:18:58.445Z,47.60
2018-04-12T22:21:25.388Z,54.80
2018-04-12T22:23:51.576Z,45.97
2018-04-12T22:26:17.779Z,51.13
2018-04-12T22:28:43.952Z,49.63
2018-04-12T22:31:10.881Z,49.03
2018-04-12T22:33:37.137Z,47.77
2018-04-12T22:36:03.289Z,49.97
2018-04-12T22:38:29.518Z,49.13
2018-04-12T22:40:56.508Z,50.23
2018-04-12T22:43:23.375Z,49.40
2018-04-12T22:45:49.666Z,49.67
2018-04-12T22:48:16.527Z,52.67
2018-04-12T22:50:43.374Z,56.03
2018-04-12T22:53:09.556Z,47.87
2018-04-12T22:55:35.778Z,47.23
